Terminal Aerodrome Forecast
Issued by NWS Indianapolis, IN

Current Version | Previous Version | Text Only | Print | Product List | Glossary On
Versions: 1 2 3 4 5 6 7 8 9 10 11 12 13 14 15 16 17 18 19 20 21 22 23 24
726
FTUS43 KIND 072335
TAFIND
TAF
KIND 072335Z 0800/0906 22011G18KT P6SM SCT040 BKN150
     FM080400 25006KT P6SM SCT040 BKN120
     FM081200 25008KT P6SM SCT025 OVC040
     FM081500 28012G20KT 3SM -SHSN OVC020
     FM082000 28013G22KT 5SM -SHSN OVC025=

USA.gov is the U.S. government's official web portal to all federal, state and local government web resources and services.